sensor_id;sensor_type;location;lat;lon;timestamp;pressure;altitude;pressure_sealevel;temperature;humidity
22206;BME280;11272;50.104;8.754;2024-03-07T00:00:46;101364.00;;;8.06;65.25
22206;BME280;11272;50.104;8.754;2024-03-07T00:06:16;101377.19;;;8.03;65.15
22206;BME280;11272;50.104;8.754;2024-03-07T00:08:41;101371.00;;;7.98;65.08
22206;BME280;11272;50.104;8.754;2024-03-07T00:11:07;101376.31;;;7.95;65.27
22206;BME280;11272;50.104;8.754;2024-03-07T00:13:34;101371.00;;;7.93;65.13
22206;BME280;11272;50.104;8.754;2024-03-07T00:16:02;101369.22;;;7.89;65.12
22206;BME280;11272;50.104;8.754;2024-03-07T00:18:27;101385.94;;;7.87;65.43
22206;BME280;11272;50.104;8.754;2024-03-07T00:20:53;101387.69;;;7.86;65.45
22206;BME280;11272;50.104;8.754;2024-03-07T00:23:20;101389.47;;;7.84;65.36
22206;BME280;11272;50.104;8.754;2024-03-07T00:25:46;101385.94;;;7.82;65.39
22206;BME280;11272;50.104;8.754;2024-03-07T00:28:15;101393.84;;;7.81;65.32
22206;BME280;11272;50.104;8.754;2024-03-07T00:30:45;101392.94;;;7.77;65.41
22206;BME280;11272;50.104;8.754;2024-03-07T00:33:11;101390.31;;;7.74;65.75
22206;BME280;11272;50.104;8.754;2024-03-07T00:35:37;101393.81;;;7.72;65.38
22206;BME280;11272;50.104;8.754;2024-03-07T00:38:03;101389.41;;;7.69;65.66
22206;BME280;11272;50.104;8.754;2024-03-07T00:40:29;101389.34;;;7.66;65.62
22206;BME280;11272;50.104;8.754;2024-03-07T00:42:55;101389.34;;;7.66;65.64
22206;BME280;11272;50.104;8.754;2024-03-07T00:45:20;101391.13;;;7.63;65.77
22206;BME280;11272;50.104;8.754;2024-03-07T00:47:46;101391.09;;;7.61;65.81
22206;BME280;11272;50.104;8.754;2024-03-07T00:50:13;101386.69;;;7.58;66.07
22206;BME280;11272;50.104;8.754;2024-03-07T00:52:39;101386.66;;;7.57;65.93
22206;BME280;11272;50.104;8.754;2024-03-07T00:55:06;101382.25;;;7.56;66.26
22206;BME280;11272;50.104;8.754;2024-03-07T00:57:35;101390.16;;;7.54;65.93
22206;BME280;11272;50.104;8.754;2024-03-07T01:00:01;101385.75;;;7.53;65.85
22206;BME280;11272;50.104;8.754;2024-03-07T01:02:26;101387.53;;;7.53;65.86
22206;BME280;11272;50.104;8.754;2024-03-07T01:04:52;101384.88;;;7.51;66.03
22206;BME280;11272;50.104;8.754;2024-03-07T01:07:18;101377.78;;;7.49;65.80
22206;BME280;11272;50.104;8.754;2024-03-07T01:09:44;101383.97;;;7.46;66.03
22206;BME280;11272;50.104;8.754;2024-03-07T01:12:12;101376.00;;;7.43;66.48
22206;BME280;11272;50.104;8.754;2024-03-07T01:14:37;101377.75;;;7.41;66.41
22206;BME280;11272;50.104;8.754;2024-03-07T01:17:03;101371.56;;;7.39;66.48
22206;BME280;11272;50.104;8.754;2024-03-07T01:19:28;101374.22;;;7.36;66.41
22206;BME280;11272;50.104;8.754;2024-03-07T01:21:54;101369.75;;;7.32;66.20
22206;BME280;11272;50.104;8.754;2024-03-07T01:24:19;101375.91;;;7.30;66.21
22206;BME280;11272;50.104;8.754;2024-03-07T01:26:46;101381.19;;;7.28;66.36
22206;BME280;11272;50.104;8.754;2024-03-07T01:29:12;101375.88;;;7.27;66.73
22206;BME280;11272;50.104;8.754;2024-03-07T01:31:39;101368.84;;;7.27;66.55
22206;BME280;11272;50.104;8.754;2024-03-07T01:34:04;101364.44;;;7.28;66.24
22206;BME280;11272;50.104;8.754;2024-03-07T01:36:30;101357.41;;;7.25;66.50
22206;BME280;11272;50.104;8.754;2024-03-07T01:38:55;101366.19;;;7.24;66.57
22206;BME280;11272;50.104;8.754;2024-03-07T01:41:21;101366.19;;;7.21;66.64
22206;BME280;11272;50.104;8.754;2024-03-07T01:43:46;101374.06;;;7.18;66.51
22206;BME280;11272;50.104;8.754;2024-03-07T01:46:12;101367.88;;;7.16;66.90
22206;BME280;11272;50.104;8.754;2024-03-07T01:48:38;101364.31;;;7.11;66.62
22206;BME280;11272;50.104;8.754;2024-03-07T01:51:05;101364.28;;;7.06;66.78
22206;BME280;11272;50.104;8.754;2024-03-07T01:53:32;101363.41;;;7.04;66.53
22206;BME280;11272;50.104;8.754;2024-03-07T01:55:59;101360.69;;;7.00;66.45
22206;BME280;11272;50.104;8.754;2024-03-07T01:58:25;101363.34;;;6.97;66.90
22206;BME280;11272;50.104;8.754;2024-03-07T02:00:51;101361.53;;;6.93;66.67
22206;BME280;11272;50.104;8.754;2024-03-07T02:03:16;101358.88;;;6.91;66.68
22206;BME280;11272;50.104;8.754;2024-03-07T02:05:43;101358.88;;;6.90;66.74
22206;BME280;11272;50.104;8.754;2024-03-07T02:08:08;101353.59;;;6.88;67.04
22206;BME280;11272;50.104;8.754;2024-03-07T02:10:34;101364.97;;;6.83;66.79
22206;BME280;11272;50.104;8.754;2024-03-07T02:13:02;101364.94;;;6.80;66.53
22206;BME280;11272;50.104;8.754;2024-03-07T02:15:28;101356.13;;;6.78;66.97
22206;BME280;11272;50.104;8.754;2024-03-07T02:17:53;101361.38;;;6.74;66.72
22206;BME280;11272;50.104;8.754;2024-03-07T02:20:19;101359.59;;;6.73;67.12
22206;BME280;11272;50.104;8.754;2024-03-07T02:22:44;101354.28;;;6.69;67.17
22206;BME280;11272;50.104;8.754;2024-03-07T02:25:10;101352.50;;;6.66;66.83
22206;BME280;11272;50.104;8.754;2024-03-07T02:27:39;101351.59;;;6.64;66.80
22206;BME280;11272;50.104;8.754;2024-03-07T02:30:04;101348.94;;;6.61;67.42
22206;BME280;11272;50.104;8.754;2024-03-07T02:32:36;101352.47;;;6.60;67.00
22206;BME280;11272;50.104;8.754;2024-03-07T02:35:03;101345.38;;;6.55;67.54
22206;BME280;11272;50.104;8.754;2024-03-07T02:37:29;101350.63;;;6.53;67.28
22206;BME280;11272;50.104;8.754;2024-03-07T02:39:54;101355.88;;;6.50;67.45
22206;BME280;11272;50.104;8.754;2024-03-07T02:42:20;101348.81;;;6.49;67.38
22206;BME280;11272;50.104;8.754;2024-03-07T02:44:46;101352.31;;;6.48;67.58
22206;BME280;11272;50.104;8.754;2024-03-07T02:47:12;101348.81;;;6.48;67.47
22206;BME280;11272;50.104;8.754;2024-03-07T02:49:39;101340.00;;;6.46;67.51
22206;BME280;11272;50.104;8.754;2024-03-07T02:52:05;101345.25;;;6.44;67.50
22206;BME280;11272;50.104;8.754;2024-03-07T02:54:33;101346.09;;;6.42;67.13
22206;BME280;11272;50.104;8.754;2024-03-07T02:56:58;101345.19;;;6.38;67.30
22206;BME280;11272;50.104;8.754;2024-03-07T02:59:24;101346.91;;;6.36;67.28
22206;BME280;11272;50.104;8.754;2024-03-07T03:01:49;101341.63;;;6.33;67.66
22206;BME280;11272;50.104;8.754;2024-03-07T03:04:16;101336.31;;;6.31;67.61
22206;BME280;11272;50.104;8.754;2024-03-07T03:06:41;101339.81;;;6.27;67.44
22206;BME280;11272;50.104;8.754;2024-03-07T03:09:11;101336.25;;;6.24;67.60
22206;BME280;11272;50.104;8.754;2024-03-07T03:11:43;101340.66;;;6.23;67.50
22206;BME280;11272;50.104;8.754;2024-03-07T03:14:09;101335.38;;;6.23;67.36
22206;BME280;11272;50.104;8.754;2024-03-07T03:16:36;101337.09;;;6.21;67.40
22206;BME280;11272;50.104;8.754;2024-03-07T03:19:01;101332.69;;;6.19;67.22
22206;BME280;11272;50.104;8.754;2024-03-07T03:21:27;101332.63;;;6.16;67.25
22206;BME280;11272;50.104;8.754;2024-03-07T03:23:52;101334.41;;;6.14;67.71
22206;BME280;11272;50.104;8.754;2024-03-07T03:26:20;101330.84;;;6.12;67.78
22206;BME280;11272;50.104;8.754;2024-03-07T03:28:47;101329.03;;;6.09;67.32
22206;BME280;11272;50.104;8.754;2024-03-07T03:31:12;101323.78;;;6.08;67.17
22206;BME280;11272;50.104;8.754;2024-03-07T03:33:39;101326.38;;;6.05;67.72
22206;BME280;11272;50.104;8.754;2024-03-07T03:36:07;101328.13;;;6.03;67.22
22206;BME280;11272;50.104;8.754;2024-03-07T03:38:32;101327.19;;;6.01;67.87
22206;BME280;11272;50.104;8.754;2024-03-07T03:40:58;101328.94;;;6.00;67.42
22206;BME280;11272;50.104;8.754;2024-03-07T03:43:26;101328.06;;;5.98;67.81
22206;BME280;11272;50.104;8.754;2024-03-07T03:45:51;101321.03;;;5.97;67.71
22206;BME280;11272;50.104;8.754;2024-03-07T03:48:17;101324.53;;;5.96;67.85
22206;BME280;11272;50.104;8.754;2024-03-07T03:50:43;101313.06;;;5.93;67.54
22206;BME280;11272;50.104;8.754;2024-03-07T03:53:08;101323.56;;;5.91;67.75
22206;BME280;11272;50.104;8.754;2024-03-07T03:55:34;101323.50;;;5.86;67.87
22206;BME280;11272;50.104;8.754;2024-03-07T03:57:59;101324.31;;;5.82;67.89
22206;BME280;11272;50.104;8.754;2024-03-07T04:00:25;101323.41;;;5.80;68.07
22206;BME280;11272;50.104;8.754;2024-03-07T04:02:53;101318.13;;;5.79;67.70
22206;BME280;11272;50.104;8.754;2024-03-07T04:05:19;101324.25;;;5.76;67.43
22206;BME280;11272;50.104;8.754;2024-03-07T04:07:46;101320.66;;;5.73;68.11
22206;BME280;11272;50.104;8.754;2024-03-07T04:10:14;101318.03;;;5.71;67.60
22206;BME280;11272;50.104;8.754;2024-03-07T04:12:40;101320.66;;;5.70;67.68
22206;BME280;11272;50.104;8.754;2024-03-07T04:15:10;101322.41;;;5.69;67.63
22206;BME280;11272;50.104;8.754;2024-03-07T04:17:37;101323.25;;;5.68;68.29
22206;BME280;11272;50.104;8.754;2024-03-07T04:20:04;101330.25;;;5.65;68.04
22206;BME280;11272;50.104;8.754;2024-03-07T04:22:34;101327.56;;;5.62;67.71
22206;BME280;11272;50.104;8.754;2024-03-07T04:25:00;101324.91;;;5.59;67.77
22206;BME280;11272;50.104;8.754;2024-03-07T04:27:26;101332.75;;;5.56;67.91
22206;BME280;11272;50.104;8.754;2024-03-07T04:29:53;101323.91;;;5.52;67.68
22206;BME280;11272;50.104;8.754;2024-03-07T04:32:18;101327.41;;;5.51;67.76
22206;BME280;11272;50.104;8.754;2024-03-07T04:34:44;101328.31;;;5.50;68.27
22206;BME280;11272;50.104;8.754;2024-03-07T04:37:10;101327.38;;;5.48;67.50
22206;BME280;11272;50.104;8.754;2024-03-07T04:39:36;101321.16;;;5.43;67.88
22206;BME280;11272;50.104;8.754;2024-03-07T04:42:02;101324.66;;;5.42;67.77
22206;BME280;11272;50.104;8.754;2024-03-07T04:44:28;101327.28;;;5.39;67.94
22206;BME280;11272;50.104;8.754;2024-03-07T04:46:54;101323.75;;;5.38;68.04
22206;BME280;11272;50.104;8.754;2024-03-07T04:49:23;101327.25;;;5.37;67.92
22206;BME280;11272;50.104;8.754;2024-03-07T04:51:56;101324.56;;;5.36;68.16
22206;BME280;11272;50.104;8.754;2024-03-07T04:54:26;101320.16;;;5.33;67.85
22206;BME280;11272;50.104;8.754;2024-03-07T04:56:52;101321.84;;;5.30;67.53
22206;BME280;11272;50.104;8.754;2024-03-07T04:59:19;101318.34;;;5.28;67.90
22206;BME280;11272;50.104;8.754;2024-03-07T05:01:46;101322.69;;;5.26;68.00
22206;BME280;11272;50.104;8.754;2024-03-07T05:04:12;101323.53;;;5.23;68.03
22206;BME280;11272;50.104;8.754;2024-03-07T05:06:39;101319.09;;;5.21;68.06
22206;BME280;11272;50.104;8.754;2024-03-07T05:09:06;101328.72;;;5.17;68.02
22206;BME280;11272;50.104;8.754;2024-03-07T05:11:36;101320.78;;;5.16;67.87
22206;BME280;11272;50.104;8.754;2024-03-07T05:14:02;101317.22;;;5.14;68.04
22206;BME280;11272;50.104;8.754;2024-03-07T05:16:29;101326.00;;;5.13;68.14
22206;BME280;11272;50.104;8.754;2024-03-07T05:18:56;101319.81;;;5.11;68.31
22206;BME280;11272;50.104;8.754;2024-03-07T05:21:28;101313.63;;;5.08;68.37
22206;BME280;11272;50.104;8.754;2024-03-07T05:24:03;101318.00;;;5.06;68.56
22206;BME280;11272;50.104;8.754;2024-03-07T05:26:29;101312.72;;;5.05;68.63
22206;BME280;11272;50.104;8.754;2024-03-07T05:29:01;101320.59;;;5.03;68.31
22206;BME280;11272;50.104;8.754;2024-03-07T05:31:31;101317.06;;;5.03;68.13
22206;BME280;11272;50.104;8.754;2024-03-07T05:34:02;101323.22;;;5.02;68.04
22206;BME280;11272;50.104;8.754;2024-03-07T05:36:37;101324.00;;;4.98;68.00
22206;BME280;11272;50.104;8.754;2024-03-07T05:39:10;101323.97;;;4.95;68.56
22206;BME280;11272;50.104;8.754;2024-03-07T05:41:40;101325.72;;;4.94;68.13
22206;BME280;11272;50.104;8.754;2024-03-07T05:44:06;101323.91;;;4.92;68.01
22206;BME280;11272;50.104;8.754;2024-03-07T05:46:41;101333.53;;;4.90;68.57
22206;BME280;11272;50.104;8.754;2024-03-07T05:49:14;101331.72;;;4.87;67.92
22206;BME280;11272;50.104;8.754;2024-03-07T05:51:41;101326.44;;;4.84;68.17
22206;BME280;11272;50.104;8.754;2024-03-07T05:54:11;101323.75;;;4.83;68.68
22206;BME280;11272;50.104;8.754;2024-03-07T05:56:39;101328.19;;;4.84;68.46
22206;BME280;11272;50.104;8.754;2024-03-07T05:59:08;101327.28;;;4.83;68.60
22206;BME280;11272;50.104;8.754;2024-03-07T06:01:37;101325.53;;;4.84;68.88
22206;BME280;11272;50.104;8.754;2024-03-07T06:04:04;101329.09;;;4.87;69.06
22206;BME280;11272;50.104;8.754;2024-03-07T06:06:34;101330.09;;;4.94;68.73
22206;BME280;11272;50.104;8.754;2024-03-07T06:09:01;101333.72;;;5.00;69.30
22206;BME280;11272;50.104;8.754;2024-03-07T06:11:39;101332.91;;;5.06;69.36
22206;BME280;11272;50.104;8.754;2024-03-07T06:14:07;101329.50;;;5.13;68.83
22206;BME280;11272;50.104;8.754;2024-03-07T06:16:35;101329.59;;;5.19;69.03
22206;BME280;11272;50.104;8.754;2024-03-07T06:19:02;101327.94;;;5.26;68.86
22206;BME280;11272;50.104;8.754;2024-03-07T06:21:29;101327.13;;;5.28;69.07
22206;BME280;11272;50.104;8.754;2024-03-07T06:23:57;101331.53;;;5.31;69.15
22206;BME280;11272;50.104;8.754;2024-03-07T06:26:30;101327.19;;;5.33;68.85
22206;BME280;11272;50.104;8.754;2024-03-07T06:29:15;101334.25;;;5.37;69.33
22206;BME280;11272;50.104;8.754;2024-03-07T06:31:42;101323.78;;;5.41;68.98
22206;BME280;11272;50.104;8.754;2024-03-07T06:34:08;101325.56;;;5.45;68.84
22206;BME280;11272;50.104;8.754;2024-03-07T06:36:34;101331.75;;;5.44;68.97
22206;BME280;11272;50.104;8.754;2024-03-07T06:39:00;101331.72;;;5.46;69.31
22206;BME280;11272;50.104;8.754;2024-03-07T06:41:26;101331.78;;;5.49;69.04
22206;BME280;11272;50.104;8.754;2024-03-07T06:43:52;101334.47;;;5.52;69.18
22206;BME280;11272;50.104;8.754;2024-03-07T06:46:20;101338.97;;;5.59;69.33
22206;BME280;11272;50.104;8.754;2024-03-07T06:48:46;101335.50;;;5.63;69.08
22206;BME280;11272;50.104;8.754;2024-03-07T06:51:11;101338.22;;;5.69;69.16
22206;BME280;11272;50.104;8.754;2024-03-07T06:53:38;101325.13;;;5.75;69.16
22206;BME280;11272;50.104;8.754;2024-03-07T06:56:05;101328.72;;;5.82;69.67
22206;BME280;11272;50.104;8.754;2024-03-07T06:58:32;101332.31;;;5.88;68.98
22206;BME280;11272;50.104;8.754;2024-03-07T07:00:57;101328.00;;;5.95;69.03
22206;BME280;11272;50.104;8.754;2024-03-07T07:03:25;101333.38;;;6.04;68.82
22206;BME280;11272;50.104;8.754;2024-03-07T07:05:53;101330.84;;;6.12;69.30
22206;BME280;11272;50.104;8.754;2024-03-07T07:08:20;101330.94;;;6.19;68.89
22206;BME280;11272;50.104;8.754;2024-03-07T07:10:45;101320.44;;;6.25;68.92
22206;BME280;11272;50.104;8.754;2024-03-07T07:13:11;101328.47;;;6.34;69.31
22206;BME280;11272;50.104;8.754;2024-03-07T07:15:39;101329.44;;;6.44;69.24
22206;BME280;11272;50.104;8.754;2024-03-07T07:18:05;101327.72;;;6.52;68.48
22206;BME280;11272;50.104;8.754;2024-03-07T07:20:33;101321.66;;;6.59;68.52
22206;BME280;11272;50.104;8.754;2024-03-07T07:22:59;101327.91;;;6.70;69.00
22206;BME280;11272;50.104;8.754;2024-03-07T07:25:27;101314.84;;;6.87;68.74
22206;BME280;11272;50.104;8.754;2024-03-07T07:27:53;101312.31;;;7.01;68.66
22206;BME280;11272;50.104;8.754;2024-03-07T07:30:20;101315.03;;;7.11;68.18
22206;BME280;11272;50.104;8.754;2024-03-07T07:32:50;101311.53;;;7.14;68.27
22206;BME280;11272;50.104;8.754;2024-03-07T07:35:17;101312.41;;;7.14;67.82
22206;BME280;11272;50.104;8.754;2024-03-07T07:37:44;101307.16;;;7.19;67.55
22206;BME280;11272;50.104;8.754;2024-03-07T07:40:12;101307.22;;;7.25;67.75
22206;BME280;11272;50.104;8.754;2024-03-07T07:42:43;101304.59;;;7.33;67.29
22206;BME280;11272;50.104;8.754;2024-03-07T07:45:09;101308.16;;;7.39;67.14
22206;BME280;11272;50.104;8.754;2024-03-07T07:47:42;101304.66;;;7.48;67.02
22206;BME280;11272;50.104;8.754;2024-03-07T07:50:10;101303.84;;;7.56;66.75
22206;BME280;11272;50.104;8.754;2024-03-07T07:52:53;101300.38;;;7.67;66.80
22206;BME280;11272;50.104;8.754;2024-03-07T07:55:20;101298.66;;;7.78;66.51
22206;BME280;11272;50.104;8.754;2024-03-07T07:57:59;101300.44;;;7.91;66.60
22206;BME280;11272;50.104;8.754;2024-03-07T08:00:27;101298.72;;;8.02;66.28
22206;BME280;11272;50.104;8.754;2024-03-07T08:03:01;101295.22;;;8.12;66.16
22206;BME280;11272;50.104;8.754;2024-03-07T08:05:32;101300.56;;;8.29;65.96
22206;BME280;11272;50.104;8.754;2024-03-07T08:08:16;101295.34;;;8.52;65.75
22206;BME280;11272;50.104;8.754;2024-03-07T08:10:43;101301.53;;;8.73;65.78
22206;BME280;11272;50.104;8.754;2024-03-07T08:13:11;101294.44;;;9.10;65.86
22206;BME280;11272;50.104;8.754;2024-03-07T08:15:38;101288.09;;;9.72;66.26
22206;BME280;11272;50.104;8.754;2024-03-07T08:18:04;101283.38;;;10.29;66.67
22206;BME280;11272;50.104;8.754;2024-03-07T08:20:36;101280.22;;;10.92;65.94
22206;BME280;11272;50.104;8.754;2024-03-07T08:23:02;101273.44;;;11.48;65.51
22206;BME280;11272;50.104;8.754;2024-03-07T08:25:28;101262.97;;;12.03;64.11
22206;BME280;11272;50.104;8.754;2024-03-07T08:27:58;101258.69;;;12.51;62.72
22206;BME280;11272;50.104;8.754;2024-03-07T08:30:24;101263.28;;;12.95;61.55
22206;BME280;11272;50.104;8.754;2024-03-07T08:32:51;101265.06;;;13.44;60.44
22206;BME280;11272;50.104;8.754;2024-03-07T08:35:18;101258.81;;;13.88;58.81
22206;BME280;11272;50.104;8.754;2024-03-07T08:37:48;101255.19;;;14.30;57.79
22206;BME280;11272;50.104;8.754;2024-03-07T08:40:21;101251.63;;;14.68;55.77
22206;BME280;11272;50.104;8.754;2024-03-07T08:42:51;101255.03;;;15.07;54.78
22206;BME280;11272;50.104;8.754;2024-03-07T08:45:18;101263.50;;;14.91;52.71
22206;BME280;11272;50.104;8.754;2024-03-07T08:47:45;101264.41;;;14.54;51.66
22206;BME280;11272;50.104;8.754;2024-03-07T08:50:12;101262.56;;;14.19;50.91
22206;BME280;11272;50.104;8.754;2024-03-07T08:52:38;101258.03;;;13.83;50.68
22206;BME280;11272;50.104;8.754;2024-03-07T08:55:06;101247.19;;;13.49;50.40
22206;BME280;11272;50.104;8.754;2024-03-07T08:57:35;101243.47;;;13.12;50.10
22206;BME280;11272;50.104;8.754;2024-03-07T09:00:03;101245.81;;;12.79;50.22
22206;BME280;11272;50.104;8.754;2024-03-07T09:02:34;101240.19;;;12.44;50.11
22206;BME280;11272;50.104;8.754;2024-03-07T09:05:03;101242.41;;;12.13;49.99
22206;BME280;11272;50.104;8.754;2024-03-07T09:07:29;101259.66;;;11.86;50.53
22206;BME280;11272;50.104;8.754;2024-03-07T09:09:55;101261.88;;;11.51;50.57
22206;BME280;11272;50.104;8.754;2024-03-07T09:12:23;101254.19;;;11.25;50.69
22206;BME280;11272;50.104;8.754;2024-03-07T09:14:51;101256.97;;;11.14;50.86
22206;BME280;11272;50.104;8.754;2024-03-07T09:17:18;101261.44;;;11.11;50.82
22206;BME280;11272;50.104;8.754;2024-03-07T09:19:43;101265.94;;;11.04;51.30
22206;BME280;11272;50.104;8.754;2024-03-07T09:22:09;101264.22;;;11.00;51.23
22206;BME280;11272;50.104;8.754;2024-03-07T09:24:41;101262.41;;;11.01;50.96
22206;BME280;11272;50.104;8.754;2024-03-07T09:27:07;101268.69;;;10.92;51.81
22206;BME280;11272;50.104;8.754;2024-03-07T09:29:33;101266.19;;;10.78;51.48
22206;BME280;11272;50.104;8.754;2024-03-07T09:31:58;101265.34;;;10.72;51.84
22206;BME280;11272;50.104;8.754;2024-03-07T09:34:24;101260.97;;;10.68;52.00
22206;BME280;11272;50.104;8.754;2024-03-07T09:36:51;101264.50;;;10.68;51.82
22206;BME280;11272;50.104;8.754;2024-03-07T09:39:20;101256.53;;;10.67;52.02
22206;BME280;11272;50.104;8.754;2024-03-07T09:41:45;101262.69;;;10.69;52.25
22206;BME280;11272;50.104;8.754;2024-03-07T09:44:15;101254.78;;;10.67;52.24
22206;BME280;11272;50.104;8.754;2024-03-07T09:46:55;101256.53;;;10.67;52.28
22206;BME280;11272;50.104;8.754;2024-03-07T09:49:21;101253.88;;;10.65;52.12
22206;BME280;11272;50.104;8.754;2024-03-07T09:51:47;101254.78;;;10.67;52.44
22206;BME280;11272;50.104;8.754;2024-03-07T09:54:13;101252.97;;;10.69;52.17
22206;BME280;11272;50.104;8.754;2024-03-07T09:56:40;101254.66;;;10.78;52.14
22206;BME280;11272;50.104;8.754;2024-03-07T09:59:15;101251.94;;;10.85;52.63
22206;BME280;11272;50.104;8.754;2024-03-07T10:01:45;101248.31;;;10.92;52.79
22206;BME280;11272;50.104;8.754;2024-03-07T10:04:13;101255.34;;;11.00;52.73
22206;BME280;11272;50.104;8.754;2024-03-07T10:06:43;101257.03;;;11.07;52.41
22206;BME280;11272;50.104;8.754;2024-03-07T10:09:11;101249.00;;;11.13;52.31
22206;BME280;11272;50.104;8.754;2024-03-07T10:11:39;101249.94;;;11.07;52.35
22206;BME280;11272;50.104;8.754;2024-03-07T10:14:07;101243.75;;;11.07;52.66
22206;BME280;11272;50.104;8.754;2024-03-07T10:16:33;101238.47;;;11.05;52.18
22206;BME280;11272;50.104;8.754;2024-03-07T10:18:59;101236.66;;;11.09;52.36
22206;BME280;11272;50.104;8.754;2024-03-07T10:21:27;101241.03;;;11.13;52.36
22206;BME280;11272;50.104;8.754;2024-03-07T10:24:07;101240.06;;;11.18;52.12
22206;BME280;11272;50.104;8.754;2024-03-07T10:26:37;101237.34;;;11.26;52.57
22206;BME280;11272;50.104;8.754;2024-03-07T10:29:07;101238.13;;;11.34;52.45
22206;BME280;11272;50.104;8.754;2024-03-07T10:31:36;101238.94;;;11.39;52.06
22206;BME280;11272;50.104;8.754;2024-03-07T10:34:04;101238.94;;;11.42;52.46
22206;BME280;11272;50.104;8.754;2024-03-07T10:36:30;101229.19;;;11.38;52.24
22206;BME280;11272;50.104;8.754;2024-03-07T10:38:58;101226.50;;;11.43;52.29
22206;BME280;11272;50.104;8.754;2024-03-07T10:41:27;101228.16;;;11.51;52.01
22206;BME280;11272;50.104;8.754;2024-03-07T10:43:57;101226.28;;;11.59;52.15
22206;BME280;11272;50.104;8.754;2024-03-07T10:46:30;101222.63;;;11.69;51.73
22206;BME280;11272;50.104;8.754;2024-03-07T10:48:59;101215.50;;;11.73;51.95
22206;BME280;11272;50.104;8.754;2024-03-07T10:54:34;101205.22;;;12.08;52.36
22206;BME280;11272;50.104;8.754;2024-03-07T10:57:15;101211.16;;;12.27;52.09
22206;BME280;11272;50.104;8.754;2024-03-07T11:02:46;101201.94;;;12.46;51.54
22206;BME280;11272;50.104;8.754;2024-03-07T11:05:13;101206.28;;;12.52;51.27
22206;BME280;11272;50.104;8.754;2024-03-07T11:07:38;101199.19;;;12.52;51.48
22206;BME280;11272;50.104;8.754;2024-03-07T11:13:00;101198.09;;;12.65;50.90
22206;BME280;11272;50.104;8.754;2024-03-07T11:15:32;101195.97;;;12.83;51.32
22206;BME280;11272;50.104;8.754;2024-03-07T11:20:52;101183.34;;;13.40;51.02
22206;BME280;11272;50.104;8.754;2024-03-07T11:23:31;101177.34;;;13.70;50.41
22206;BME280;11272;50.104;8.754;2024-03-07T11:26:07;101168.22;;;14.17;50.12
22206;BME280;11272;50.104;8.754;2024-03-07T11:31:37;101159.50;;;15.42;49.34
22206;BME280;11272;50.104;8.754;2024-03-07T11:34:16;101143.03;;;16.39;49.17
22206;BME280;11272;50.104;8.754;2024-03-07T11:36:46;101140.19;;;17.43;47.99
22206;BME280;11272;50.104;8.754;2024-03-07T11:42:27;101121.22;;;19.17;45.47
22206;BME280;11272;50.104;8.754;2024-03-07T11:50:20;101111.56;;;18.92;42.04
22206;BME280;11272;50.104;8.754;2024-03-07T11:52:46;101111.63;;;18.71;41.83
22206;BME280;11272;50.104;8.754;2024-03-07T11:55:12;101096.22;;;18.54;41.39
22206;BME280;11272;50.104;8.754;2024-03-07T11:57:40;101092.75;;;18.30;41.29
22206;BME280;11272;50.104;8.754;2024-03-07T12:00:19;101096.75;;;18.00;41.20
22206;BME280;11272;50.104;8.754;2024-03-07T12:02:46;101101.03;;;17.59;41.15
22206;BME280;11272;50.104;8.754;2024-03-07T12:05:14;101089.00;;;17.24;41.67
22206;BME280;11272;50.104;8.754;2024-03-07T12:07:43;101088.19;;;16.99;41.86
22206;BME280;11272;50.104;8.754;2024-03-07T12:10:09;101093.03;;;16.64;41.81
22206;BME280;11272;50.104;8.754;2024-03-07T12:12:35;101089.63;;;16.33;42.05
22206;BME280;11272;50.104;8.754;2024-03-07T12:15:05;101083.97;;;16.16;42.09
22206;BME280;11272;50.104;8.754;2024-03-07T12:17:35;101081.16;;;16.19;42.87
22206;BME280;11272;50.104;8.754;2024-03-07T12:20:01;101083.34;;;16.60;42.75
22206;BME280;11272;50.104;8.754;2024-03-07T12:22:47;101080.34;;;17.16;42.49
22206;BME280;11272;50.104;8.754;2024-03-07T12:25:18;101067.38;;;17.50;42.17
22206;BME280;11272;50.104;8.754;2024-03-07T12:27:58;101064.44;;;18.22;41.86
22206;BME280;11272;50.104;8.754;2024-03-07T12:30:26;101064.94;;;19.11;41.25
22206;BME280;11272;50.104;8.754;2024-03-07T12:32:52;101055.59;;;19.57;39.99
22206;BME280;11272;50.104;8.754;2024-03-07T12:35:18;101050.78;;;20.16;39.38
22206;BME280;11272;50.104;8.754;2024-03-07T12:37:44;101049.22;;;20.97;38.49
22206;BME280;11272;50.104;8.754;2024-03-07T12:40:14;101039.22;;;21.63;37.47
22206;BME280;11272;50.104;8.754;2024-03-07T12:42:51;101032.47;;;22.02;36.71
22206;BME280;11272;50.104;8.754;2024-03-07T12:45:19;101024.41;;;22.16;35.92
22206;BME280;11272;50.104;8.754;2024-03-07T12:47:48;101027.06;;;21.86;35.13
22206;BME280;11272;50.104;8.754;2024-03-07T12:50:18;101021.41;;;21.59;35.19
22206;BME280;11272;50.104;8.754;2024-03-07T12:52:46;101024.50;;;22.14;35.03
22206;BME280;11272;50.104;8.754;2024-03-07T12:55:15;101011.09;;;22.99;34.15
22206;BME280;11272;50.104;8.754;2024-03-07T12:57:47;101012.28;;;23.65;33.23
22206;BME280;11272;50.104;8.754;2024-03-07T13:00:16;100999.81;;;24.02;32.11
22206;BME280;11272;50.104;8.754;2024-03-07T13:02:49;100997.59;;;24.21;31.72
22206;BME280;11272;50.104;8.754;2024-03-07T13:05:15;101003.03;;;23.94;31.28
22206;BME280;11272;50.104;8.754;2024-03-07T13:07:51;101002.84;;;23.15;31.38
22206;BME280;11272;50.104;8.754;2024-03-07T13:10:18;100995.47;;;22.46;31.65
22206;BME280;11272;50.104;8.754;2024-03-07T13:12:46;101007.00;;;22.06;31.79
22206;BME280;11272;50.104;8.754;2024-03-07T13:15:14;101006.00;;;21.61;31.88
22206;BME280;11272;50.104;8.754;2024-03-07T13:17:40;100990.34;;;21.04;32.39
22206;BME280;11272;50.104;8.754;2024-03-07T13:20:11;100992.19;;;20.70;32.42
22206;BME280;11272;50.104;8.754;2024-03-07T13:22:39;101000.06;;;20.57;32.95
22206;BME280;11272;50.104;8.754;2024-03-07T13:25:11;100987.25;;;20.78;32.96
22206;BME280;11272;50.104;8.754;2024-03-07T13:27:52;100986.09;;;20.34;33.03